»·PEaware :: SWA130 KDAL-KMAF

SWA130 :: KDAL-KMAF

FLIGHT INFORMATION

Flight Status: Arrived
Operator:
Southwest Airlines
More flights by this operator :: More flights under this callsign
Pilot: Justin M. (19723)
Aircraft: BOEING 737-800
(B738)
More flights by this aircraft type
Origin: KDAL Dallas Love
United States
Destination: KMAF Midland Intl
United States
More flights between these airports :: More routes between these airports
Route: +SNSET4 DOSXX MAF
File this flight plan on PilotEdge
Remarks:
Altitude:
(Current/Filed)
36,000ft
Speed:
(Current/Filed)
0kts
Departed: 14-Mar-20 04:11 PM
Arrived: 14-Mar-20 05:07 PM
Distance/Time
Traveled:
277nm/0:56
Distance/Time
To Go:
Arrived

Flight Plot

Page will automatically refresh every two minutes.

Flight plan parsing failed; only flown route is shown


Map Options




Map Legend


Flown Route
Filed Route
Departure Airport
Arrival Airport
Navaid (VOR, NDB)
Fix

Horizontal Profiles

Position Reports

Time Latitude Longitude Heading Altitude Ground
Speed
14-Mar-20 16:02 32.845542 -96.848718 358 489ft 0kts
14-Mar-20 16:03 32.845542 -96.848718 358 489ft 0kts
14-Mar-20 16:04 32.845132 -96.848708 358 488ft 2kts
14-Mar-20 16:05 32.845062 -96.848214 90 488ft 5kts
14-Mar-20 16:06 32.845061 -96.847982 90 488ft 0kts
14-Mar-20 16:07 32.845061 -96.847878 90 488ft 3kts
14-Mar-20 16:08 32.844399 -96.845031 137 489ft 15kts
14-Mar-20 16:09 32.841138 -96.841197 127 490ft 14kts
14-Mar-20 16:10 32.846021 -96.843751 316 493ft 109kts
14-Mar-20 16:11 32.877113 -96.885197 305 2538ft 208kts
14-Mar-20 16:12 32.915938 -96.945824 284 5125ft 262kts
14-Mar-20 16:13 32.892088 -97.023667 214 7953ft 273kts
14-Mar-20 16:14 32.817880 -97.039703 183 10954ft 301kts
14-Mar-20 16:15 32.730360 -97.050821 211 13455ft 320kts
14-Mar-20 16:16 32.680236 -97.133166 254 16362ft 322kts
14-Mar-20 16:17 32.662231 -97.238732 260 18913ft 333kts
14-Mar-20 16:18 32.663145 -97.351655 269 21168ft 347kts
14-Mar-20 16:19 32.667846 -97.467916 269 23164ft 358kts
14-Mar-20 16:20 32.672659 -97.587679 269 24998ft 367kts
14-Mar-20 16:21 32.677089 -97.710387 265 26660ft 374kts
14-Mar-20 16:22 32.670003 -97.834313 261 28227ft 380kts
14-Mar-20 16:23 32.660448 -97.960482 260 29637ft 386kts
14-Mar-20 16:24 32.650580 -98.087376 259 31239ft 384kts
14-Mar-20 16:25 32.640717 -98.212194 258 32985ft 375kts
14-Mar-20 16:26 32.630740 -98.333558 257 34576ft 366kts
14-Mar-20 16:27 32.620972 -98.452904 257 35898ft 361kts
14-Mar-20 16:28 32.611146 -98.572282 257 36229ft 364kts
14-Mar-20 16:29 32.601396 -98.689523 256 36244ft 361kts
14-Mar-20 16:30 32.591329 -98.808147 256 36242ft 361kts
14-Mar-20 16:31 32.581263 -98.926628 256 36239ft 361kts
14-Mar-20 16:32 32.571072 -99.045424 256 36233ft 362kts
14-Mar-20 16:33 32.560814 -99.163885 256 36227ft 360kts
14-Mar-20 16:34 32.550432 -99.282127 255 36225ft 360kts
14-Mar-20 16:35 32.528924 -99.396725 249 36223ft 354kts
14-Mar-20 16:36 32.502208 -99.508804 248 36220ft 354kts
14-Mar-20 16:37 32.474907 -99.621251 248 36218ft 355kts
14-Mar-20 16:38 32.448903 -99.727236 248 36233ft 355kts
14-Mar-20 16:39 32.421303 -99.839412 248 36233ft 354kts
14-Mar-20 16:40 32.394405 -99.952161 250 36240ft 358kts
14-Mar-20 16:41 32.374728 -100.067983 252 36245ft 358kts
14-Mar-20 16:42 32.355810 -100.183625 252 36243ft 358kts
14-Mar-20 16:43 32.336762 -100.299897 252 36240ft 360kts
14-Mar-20 16:44 32.317681 -100.415846 252 36237ft 360kts
14-Mar-20 16:45 32.298389 -100.532357 252 36235ft 361kts
14-Mar-20 16:46 32.279051 -100.648539 252 36233ft 359kts
14-Mar-20 16:47 32.259447 -100.764750 252 36094ft 361kts
14-Mar-20 16:48 32.239880 -100.880664 252 35079ft 358kts
14-Mar-20 16:49 32.220128 -100.997056 252 34066ft 366kts
14-Mar-20 16:50 32.199801 -101.116449 254 32092ft 377kts
14-Mar-20 16:51 32.179287 -101.236488 255 29122ft 371kts
14-Mar-20 16:52 32.158980 -101.354126 255 26253ft 363kts
14-Mar-20 16:53 32.138894 -101.469683 256 23430ft 357kts
14-Mar-20 16:54 32.119114 -101.582755 256 20815ft 347kts
14-Mar-20 16:55 32.108768 -101.692641 274 18316ft 345kts
14-Mar-20 16:56 32.110465 -101.803014 265 15887ft 332kts
14-Mar-20 16:57 32.108371 -101.909492 265 13728ft 318kts
14-Mar-20 16:58 32.105834 -102.011737 265 11645ft 307kts
14-Mar-20 16:59 32.102837 -102.107698 265 10658ft 275kts
14-Mar-20 17:00 32.097040 -102.191352 248 9421ft 234kts
14-Mar-20 17:01 32.064464 -102.250065 202 7920ft 212kts
14-Mar-20 17:02 32.012752 -102.278027 202 6424ft 193kts
14-Mar-20 17:03 31.969444 -102.277643 116 4567ft 160kts
14-Mar-20 17:04 31.953676 -102.232645 111 3206ft 143kts
14-Mar-20 17:05 31.940641 -102.197459 113 2882ft 47kts
14-Mar-20 17:06 31.938242 -102.197805 269 2882ft 20kts
14-Mar-20 17:07 31.938142 -102.205096 246 2882ft 13kts
14-Mar-20 17:08 31.936950 -102.206904 265 2882ft 0kts
14-Mar-20 17:09 31.936950 -102.206904 265 2882ft 0kts
14-Mar-20 17:10 31.936950 -102.206904 265 2882ft 0kts

Navigation Log

Ident Type
Flight plan parsing failed, navigation log unavailable